Time;durP1;ratioP1;P1;durP2;ratioP2;P2;SDS_P1;SDS_P2;PMS_P1;PMS_P2;Temp;Humidity;BMP_temperature;BMP_pressure;BME280_temperature;BME280_humidity;BME280_pressure;Samples;Min_cycle;Max_cycle;Signal;HPM_P1;HPM_P2
2022/05/01 00:00:34;;;;;;;8.70;4.53;;;8.70;99.90;;;;;;5091770;28;20040;-54
2022/05/01 00:03:01;;;;;;;7.65;4.85;;;8.70;99.90;;;;;;5091939;28;20416;-55
2022/05/01 00:05:29;;;;;;;8.57;5.15;;;8.70;99.90;;;;;;5092200;28;20048;-56
2022/05/01 00:07:57;;;;;;;12.85;5.13;;;8.70;99.90;;;;;;5084435;28;20044;-56
2022/05/01 00:10:23;;;;;;;8.00;4.72;;;8.70;99.90;;;;;;5073241;28;20051;-56
2022/05/01 00:12:50;;;;;;;6.43;4.47;;;8.70;99.90;;;;;;5091882;28;20048;-52
2022/05/01 00:15:17;;;;;;;9.80;4.37;;;8.70;99.90;;;;;;5089288;28;20451;-57
2022/05/01 00:17:44;;;;;;;6.10;4.15;;;8.70;99.90;;;;;;5085315;28;20278;-53
2022/05/01 00:20:11;;;;;;;9.35;4.88;;;8.70;99.90;;;;;;5091606;28;20044;-56
2022/05/01 00:22:38;;;;;;;;;;;8.80;99.90;;;;;;5092421;28;20043;-54
2022/05/01 00:25:05;;;;;;;7.20;4.32;;;8.80;99.90;;;;;;5073199;28;19954;-54
2022/05/01 00:27:32;;;;;;;10.40;5.15;;;8.80;99.90;;;;;;5091881;28;20040;-55
2022/05/01 00:29:59;;;;;;;10.80;5.03;;;8.70;99.90;;;;;;5073235;28;20066;-56
2022/05/01 00:32:26;;;;;;;5.05;3.95;;;8.70;99.90;;;;;;5091809;28;20044;-55
2022/05/01 00:37:38;;;;;;;5.80;4.22;;;8.70;99.90;;;;;;5071568;28;20044;-56
2022/05/01 00:40:06;;;;;;;5.68;4.53;;;8.70;99.90;;;;;;5071218;28;20043;-55
2022/05/01 00:42:32;;;;;;;8.15;4.90;;;8.70;99.90;;;;;;5071187;28;20043;-56
2022/05/01 00:44:59;;;;;;;7.90;4.13;;;8.60;99.90;;;;;;5087804;28;20040;-54
2022/05/01 00:47:26;;;;;;;6.53;4.45;;;8.60;99.90;;;;;;5091621;28;20085;-56
2022/05/01 00:49:52;;;;;;;4.50;3.58;;;8.70;99.90;;;;;;5091311;28;20442;-55
2022/05/01 00:52:22;;;;;;;5.25;3.85;;;8.70;99.90;;;;;;5082963;28;20511;-54
2022/05/01 00:54:49;;;;;;;7.03;3.78;;;8.60;99.90;;;;;;5091429;28;20078;-57
2022/05/01 00:57:16;;;;;;;6.15;3.95;;;8.60;99.90;;;;;;5073461;28;20089;-55
2022/05/01 00:59:45;;;;;;;5.32;3.88;;;8.60;99.90;;;;;;5087946;28;20036;-55
2022/05/01 01:02:13;;;;;;;7.28;4.15;;;8.60;99.90;;;;;;5091396;28;20090;-56
2022/05/01 01:04:40;;;;;;;5.47;3.67;;;8.60;99.90;;;;;;5091400;28;20039;-56
2022/05/01 01:07:07;;;;;;;4.80;3.65;;;8.60;99.90;;;;;;5087477;28;20474;-53
2022/05/01 01:09:35;;;;;;;4.60;3.25;;;8.70;99.90;;;;;;5090901;28;20040;-55
2022/05/01 01:14:48;;;;;;;6.60;4.50;;;8.70;99.90;;;;;;5091447;28;20385;-54
2022/05/01 01:17:14;;;;;;;7.22;4.22;;;8.70;99.90;;;;;;5087837;28;20048;-55
2022/05/01 01:19:41;;;;;;;8.33;4.93;;;8.60;99.90;;;;;;5090968;28;20529;-53
2022/05/01 01:22:09;;;;;;;7.18;4.40;;;8.60;99.90;;;;;;5091364;28;20286;-56
2022/05/01 01:24:41;;;;;;;11.32;4.65;;;8.60;99.90;;;;;;5090243;28;20044;-56
2022/05/01 01:27:08;;;;;;;7.22;4.78;;;8.60;99.90;;;;;;5091513;28;20481;-56
2022/05/01 01:32:25;;;;;;;7.32;4.30;;;8.50;99.90;;;;;;5094609;28;20081;-54
2022/05/01 01:34:54;;;;;;;6.80;4.53;;;8.50;99.90;;;;;;5090197;28;20131;-55
2022/05/01 01:37:22;;;;;;;7.95;4.75;;;8.60;99.90;;;;;;5095062;28;20488;-56
2022/05/01 01:39:50;;;;;;;6.20;4.45;;;8.60;99.90;;;;;;5094581;28;20052;-56
2022/05/01 01:42:18;;;;;;;5.35;4.20;;;8.50;99.90;;;;;;5088781;28;20044;-54
2022/05/01 01:44:45;;;;;;;6.13;3.97;;;8.50;99.90;;;;;;5094923;28;20048;-54
2022/05/01 01:47:14;;;;;;;8.43;4.28;;;8.50;99.90;;;;;;5076774;28;20040;-53
2022/05/01 01:49:41;;;;;;;5.43;4.20;;;8.50;99.90;;;;;;5088392;28;20052;-56
2022/05/01 01:52:08;;;;;;;5.05;3.85;;;8.50;99.90;;;;;;5091983;28;20106;-54
2022/05/01 01:54:35;;;;;;;8.40;4.30;;;8.50;99.90;;;;;;5094657;28;20115;-52
2022/05/01 01:57:03;;;;;;;6.70;4.63;;;8.50;99.90;;;;;;5094781;28;20036;-55
2022/05/01 01:59:29;;;;;;;;;;;8.50;99.90;;;;;;5091323;28;20082;-53
2022/05/01 02:01:56;;;;;;;6.72;4.50;;;8.50;99.90;;;;;;5080654;28;19920;-53
2022/05/01 02:04:23;;;;;;;7.13;4.63;;;8.50;99.90;;;;;;5094669;28;20044;-55
2022/05/01 02:06:50;;;;;;;10.35;5.38;;;8.50;99.90;;;;;;5094590;28;20070;-54
2022/05/01 02:09:18;;;;;;;9.23;5.35;;;8.40;99.90;;;;;;5088306;28;20397;-52
2022/05/01 02:11:45;;;;;;;8.48;5.65;;;8.50;99.90;;;;;;5093934;28;20051;-53
2022/05/01 02:14:12;;;;;;;;;;;8.40;99.90;;;;;;5094944;28;20070;-56
2022/05/01 02:16:42;;;;;;;6.63;4.30;;;8.40;99.90;;;;;;5094374;28;19966;-55
2022/05/01 02:19:09;;;;;;;7.10;4.20;;;8.40;99.90;;;;;;5085562;28;20040;-52
2022/05/01 02:21:37;;;;;;;;;;;8.40;99.90;;;;;;5094198;28;20056;-56
2022/05/01 02:24:12;;;;;;;7.13;4.50;;;8.40;99.90;;;;;;5094169;28;19920;-53
2022/05/01 02:26:39;;;;;;;8.70;4.40;;;8.50;99.90;;;;;;5092864;28;20051;-56
2022/05/01 02:29:09;;;;;;;6.47;3.90;;;8.40;99.90;;;;;;5094043;28;20055;-54
2022/05/01 02:31:41;;;;;;;9.68;4.57;;;8.40;99.90;;;;;;5093612;28;20040;-55
2022/05/01 02:34:10;;;;;;;6.47;3.90;;;8.40;99.90;;;;;;5092156;28;20044;-55
2022/05/01 02:36:38;;;;;;;7.80;4.00;;;8.40;99.90;;;;;;5093867;28;20047;-55
2022/05/01 02:39:05;;;;;;;4.47;3.30;;;8.50;99.90;;;;;;5092856;28;20040;-56
2022/05/01 02:41:32;;;;;;;4.70;3.33;;;8.50;99.90;;;;;;5093598;28;20048;-57
2022/05/01 02:43:59;;;;;;;5.15;3.35;;;8.50;99.90;;;;;;5092352;28;20048;-56
2022/05/01 02:46:26;;;;;;;5.13;3.38;;;8.50;99.90;;;;;;5093552;28;20059;-55
2022/05/01 02:48:53;;;;;;;;;;;8.50;99.90;;;;;;5094114;28;20052;-56
2022/05/01 02:51:20;;;;;;;5.13;3.70;;;8.50;99.90;;;;;;5093238;28;19924;-56
2022/05/01 02:53:47;;;;;;;6.55;4.28;;;8.50;99.90;;;;;;5090997;28;20036;-55
2022/05/01 02:56:14;;;;;;;5.50;3.85;;;8.50;99.90;;;;;;5093538;28;20036;-55
2022/05/01 02:58:40;;;;;;;9.10;4.47;;;8.40;99.90;;;;;;5094057;28;20044;-56
2022/05/01 03:01:07;;;;;;;6.22;4.30;;;8.40;99.90;;;;;;5093084;28;20089;-55
2022/05/01 03:03:35;;;;;;;8.57;4.50;;;8.40;99.90;;;;;;5089324;28;20109;-54
2022/05/01 03:06:02;;;;;;;;;;;8.40;99.90;;;;;;5093722;28;20063;-55
2022/05/01 03:08:29;;;;;;;9.27;5.05;;;8.40;99.90;;;;;;5093370;28;19920;-56
2022/05/01 03:10:54;;;;;;;7.05;4.82;;;8.40;99.90;;;;;;5092960;28;20480;-55
2022/05/01 03:13:21;;;;;;;6.22;5.05;;;8.40;99.90;;;;;;5119380;22;20104;-51
2022/05/01 03:15:48;;;;;;;8.10;5.15;;;8.40;99.90;;;;;;5112950;28;20043;-51
2022/05/01 03:23:46;;;;;;;6.18;4.30;;;8.30;99.90;;;;;;5091116;28;20626;-50
2022/05/01 03:26:16;;;;;;;;;;;8.30;99.90;;;;;;5093241;28;20110;-50
2022/05/01 03:28:43;;;;;;;6.53;3.30;;;8.40;99.90;;;;;;5093001;28;19947;-50
2022/05/01 03:31:12;;;;;;;8.45;4.63;;;8.40;99.90;;;;;;5091921;28;20070;-51
2022/05/01 03:33:39;;;;;;;6.32;4.57;;;8.30;99.90;;;;;;5092686;28;20131;-52
2022/05/01 03:36:06;;;;;;;;;;;8.30;99.90;;;;;;5093246;28;20130;-49
2022/05/01 03:38:42;;;;;;;9.20;3.92;;;8.30;99.90;;;;;;5092146;28;20342;-51
2022/05/01 03:41:12;;;;;;;6.25;3.40;;;8.40;99.90;;;;;;5092279;28;20462;-52
2022/05/01 03:43:39;;;;;;;5.30;3.53;;;8.30;99.90;;;;;;5092856;28;20454;-51
2022/05/01 03:46:06;;;;;;;6.80;3.92;;;8.30;99.90;;;;;;5092685;28;20081;-50
2022/05/01 03:48:33;;;;;;;5.80;3.42;;;8.30;99.90;;;;;;5092109;28;20435;-50
2022/05/01 03:51:00;;;;;;;5.00;3.20;;;8.30;99.90;;;;;;5091775;28;20040;-50
2022/05/01 03:53:27;;;;;;;5.20;3.70;;;8.40;99.90;;;;;;5092348;28;20101;-50
2022/05/01 03:55:54;;;;;;;11.80;4.18;;;8.40;99.90;;;;;;5092494;28;20048;-50
2022/05/01 03:58:21;;;;;;;5.72;3.83;;;8.40;99.90;;;;;;5085852;28;20055;-50
2022/05/01 04:00:48;;;;;;;7.43;4.22;;;8.40;99.90;;;;;;5091926;28;20443;-52
2022/05/01 04:03:15;;;;;;;8.52;3.90;;;8.40;99.90;;;;;;5092275;28;20089;-51
2022/05/01 04:05:42;;;;;;;7.75;4.72;;;8.40;99.90;;;;;;5092255;28;20058;-50
2022/05/01 04:08:10;;;;;;;6.05;3.92;;;8.40;99.90;;;;;;5091683;28;20044;-50
2022/05/01 04:10:46;;;;;;;6.03;4.07;;;8.30;99.90;;;;;;5073556;28;20048;-50
2022/05/01 04:13:14;;;;;;;6.93;4.43;;;8.30;99.90;;;;;;5092023;28;20077;-49
2022/05/01 04:15:41;;;;;;;;;;;8.30;99.90;;;;;;5091988;28;20048;-51
2022/05/01 04:18:10;;;;;;;9.20;4.15;;;8.30;99.90;;;;;;5091791;28;19927;-49
2022/05/01 04:20:37;;;;;;;6.70;4.03;;;8.30;99.90;;;;;;5073630;28;20048;-51
2022/05/01 04:23:06;;;;;;;6.55;3.92;;;8.30;99.90;;;;;;5091381;28;20780;-50
2022/05/01 04:25:34;;;;;;;6.40;4.38;;;8.40;99.90;;;;;;5091795;28;20039;-49
2022/05/01 04:28:04;;;;;;;7.75;4.50;;;8.40;99.90;;;;;;5092014;28;20055;-50
2022/05/01 04:30:32;;;;;;;7.32;5.05;;;8.40;99.90;;;;;;5091501;28;20050;-52
2022/05/01 04:33:01;;;;;;;6.68;4.50;;;8.40;99.90;;;;;;5089893;28;20039;-50
2022/05/01 04:35:31;;;;;;;8.73;4.80;;;8.40;99.90;;;;;;5071635;28;20048;-53
2022/05/01 04:38:11;;;;;;;8.95;6.07;;;8.40;99.90;;;;;;5071641;28;20041;-49
2022/05/01 04:40:40;;;;;;;7.75;4.68;;;8.40;99.90;;;;;;5086146;28;20028;-49
2022/05/01 04:43:18;;;;;;;6.70;4.63;;;8.30;99.90;;;;;;5091649;28;20530;-50
2022/05/01 04:45:53;;;;;;;6.47;4.63;;;8.30;99.90;;;;;;5091838;28;20381;-49
2022/05/01 04:48:21;;;;;;;6.88;4.70;;;8.40;99.90;;;;;;5091834;28;20055;-49
2022/05/01 04:50:50;;;;;;;6.50;4.82;;;8.40;99.90;;;;;;5090532;28;20048;-48
2022/05/01 04:53:20;;;;;;;7.95;4.20;;;8.40;99.90;;;;;;5091482;28;20069;-49
2022/05/01 04:55:48;;;;;;;6.18;4.22;;;8.50;99.90;;;;;;5091489;28;20074;-50
2022/05/01 04:58:15;;;;;;;6.03;4.47;;;8.50;99.90;;;;;;5091011;28;20040;-50
2022/05/01 05:00:43;;;;;;;7.38;4.38;;;8.50;99.90;;;;;;5091062;28;20036;-50
2022/05/01 05:03:10;;;;;;;6.15;3.70;;;8.50;99.90;;;;;;5093672;28;20047;-50
2022/05/01 05:05:37;;;;;;;6.00;4.28;;;8.50;99.90;;;;;;5095814;28;20172;-51
2022/05/01 05:10:51;;;;;;;6.95;4.65;;;8.50;99.90;;;;;;5095543;28;20059;-50
2022/05/01 05:13:24;;;;;;;7.75;5.25;;;8.50;99.90;;;;;;5095725;28;20071;-50
2022/05/01 05:15:51;;;;;;;7.05;4.55;;;8.50;99.90;;;;;;5098414;28;20036;-52
2022/05/01 05:18:18;;;;;;;7.60;4.93;;;8.60;99.90;;;;;;5106991;28;20097;-50
2022/05/01 05:20:44;;;;;;;8.68;5.07;;;8.60;99.90;;;;;;5105775;28;20104;-52
2022/05/01 05:23:11;;;;;;;9.15;5.38;;;8.60;99.90;;;;;;5099946;28;20044;-49
2022/05/01 05:25:38;;;;;;;6.35;4.65;;;8.60;99.90;;;;;;5097199;28;20040;-51
2022/05/01 05:28:07;;;;;;;8.18;5.05;;;8.60;99.90;;;;;;5095219;28;20392;-48
2022/05/01 05:30:35;;;;;;;7.68;4.43;;;8.60;99.90;;;;;;5094672;28;20085;-49
2022/05/01 05:33:05;;;;;;;6.97;4.70;;;8.60;99.90;;;;;;5094773;28;20040;-49
2022/05/01 05:35:32;;;;;;;8.48;6.00;;;8.60;99.90;;;;;;5094475;28;20040;-49
2022/05/01 05:37:59;;;;;;;10.73;6.38;;;8.60;99.90;;;;;;5094729;28;20056;-51
2022/05/01 05:40:26;;;;;;;9.38;7.18;;;8.70;99.90;;;;;;5094569;28;20044;-53
2022/05/01 05:42:53;;;;;;;9.02;6.55;;;8.70;99.90;;;;;;5091169;28;20102;-49
2022/05/01 05:45:19;;;;;;;7.28;5.85;;;8.70;99.90;;;;;;5093616;28;20074;-50
2022/05/01 05:47:46;;;;;;;9.07;6.65;;;8.80;99.90;;;;;;5094752;28;20165;-53
2022/05/01 05:50:13;;;;;;;10.38;6.07;;;8.80;99.90;;;;;;5076126;28;20412;-54
2022/05/01 05:52:40;;;;;;;10.25;6.30;;;8.80;99.90;;;;;;5075563;28;20634;-53
2022/05/01 05:55:07;;;;;;;11.60;6.65;;;8.90;99.90;;;;;;5094510;28;20036;-48
2022/05/01 05:57:34;;;;;;;8.40;6.20;;;8.90;99.90;;;;;;5076447;28;20396;-51
2022/05/01 06:00:01;;;;;;;10.95;5.78;;;8.90;99.90;;;;;;5093202;28;20051;-49
2022/05/01 06:02:38;;;;;;;9.23;6.57;;;8.90;99.90;;;;;;5092369;28;20050;-48
2022/05/01 06:05:06;;;;;;;7.57;6.03;;;9.00;99.90;;;;;;5094368;28;20052;-48
2022/05/01 06:07:33;;;;;;;8.20;5.80;;;9.00;99.90;;;;;;5094148;28;20036;-48
2022/05/01 06:10:00;;;;;;;7.88;5.82;;;9.00;99.90;;;;;;5093516;28;20044;-49
2022/05/01 06:12:28;;;;;;;8.70;5.93;;;9.00;99.90;;;;;;5093998;28;20515;-50
2022/05/01 06:14:55;;;;;;;8.90;6.00;;;9.10;99.90;;;;;;5094136;28;20054;-48
2022/05/01 06:17:22;;;;;;;10.30;6.47;;;9.10;99.90;;;;;;5076001;28;20437;-47
2022/05/01 06:19:48;;;;;;;9.00;6.25;;;9.20;99.90;;;;;;5087693;28;20125;-48
2022/05/01 06:22:16;;;;;;;9.60;5.60;;;9.30;99.90;;;;;;5092084;28;20048;-50
2022/05/01 06:24:42;;;;;;;12.25;5.75;;;9.30;99.90;;;;;;5094156;28;20101;-48
2022/05/01 06:27:09;;;;;;;8.15;5.65;;;9.40;99.90;;;;;;5094053;28;20043;-51
2022/05/01 06:29:36;;;;;;;8.07;5.60;;;9.50;99.90;;;;;;5092980;28;20048;-48
2022/05/01 06:32:03;;;;;;;7.53;5.50;;;9.60;99.90;;;;;;5093528;28;20040;-49
2022/05/01 06:34:30;;;;;;;6.28;4.50;;;9.60;99.90;;;;;;5093955;28;20053;-49
2022/05/01 06:36:57;;;;;;;8.45;5.57;;;9.60;99.90;;;;;;5093558;28;20079;-54
2022/05/01 06:39:24;;;;;;;8.63;5.07;;;9.60;99.90;;;;;;5089991;28;20039;-49
2022/05/01 06:41:51;;;;;;;7.30;4.93;;;9.60;99.90;;;;;;5099463;28;20044;-51
2022/05/01 06:44:19;;;;;;;6.70;4.90;;;9.50;99.90;;;;;;5081468;28;20048;-50
2022/05/01 06:46:46;;;;;;;6.90;4.88;;;9.60;99.90;;;;;;5095301;28;20044;-51
2022/05/01 06:49:13;;;;;;;7.20;5.32;;;9.70;99.90;;;;;;5085928;28;20052;-48
2022/05/01 06:51:39;;;;;;;6.60;4.80;;;9.70;99.90;;;;;;5092729;28;20523;-50
2022/05/01 06:54:08;;;;;;;7.18;4.60;;;9.80;99.90;;;;;;5093515;28;20043;-48
2022/05/01 06:56:35;;;;;;;8.95;5.55;;;9.80;99.90;;;;;;5092727;28;20040;-47
2022/05/01 06:59:02;;;;;;;6.32;4.28;;;9.90;99.90;;;;;;5093380;28;20070;-50
2022/05/01 07:01:29;;;;;;;;;;;9.70;99.90;;;;;;5093416;28;20044;-50
2022/05/01 07:03:56;;;;;;;6.63;4.78;;;9.60;99.90;;;;;;5093340;28;19955;-50
2022/05/01 07:06:23;;;;;;;7.07;4.32;;;9.70;99.90;;;;;;5090092;28;20459;-47
2022/05/01 07:08:49;;;;;;;7.57;5.13;;;9.80;99.90;;;;;;5093208;28;20105;-51
2022/05/01 07:11:16;;;;;;;7.15;4.38;;;9.80;99.90;;;;;;5092711;28;20286;-49
2022/05/01 07:13:43;;;;;;;7.75;4.90;;;9.90;99.90;;;;;;5092442;28;20063;-50
2022/05/01 07:16:10;;;;;;;6.90;4.72;;;9.90;99.90;;;;;;5092762;28;20085;-50
2022/05/01 07:18:37;;;;;;;5.82;4.32;;;9.90;99.90;;;;;;5093067;28;20109;-50
2022/05/01 07:21:03;;;;;;;4.72;3.60;;;10.00;99.90;;;;;;5091717;28;20048;-48
2022/05/01 07:23:30;;;;;;;6.68;4.07;;;10.10;99.90;;;;;;5092755;28;20036;-50
2022/05/01 07:26:46;;;;;;;5.00;3.80;;;10.10;99.90;;;;;;5092185;28;20141;-51
2022/05/01 07:29:13;;;;;;;5.38;4.07;;;10.10;99.90;;;;;;5070695;28;20527;-50
2022/05/01 07:31:40;;;;;;;14.77;8.13;;;10.10;99.90;;;;;;5086422;28;20484;-54
2022/05/01 07:34:08;;;;;;;7.72;5.03;;;10.10;99.90;;;;;;5089639;28;20066;-54
2022/05/01 07:36:35;;;;;;;6.32;4.68;;;10.30;99.90;;;;;;5088015;28;20489;-52
2022/05/01 07:39:02;;;;;;;8.77;4.25;;;10.40;99.90;;;;;;5092118;28;20040;-52
2022/05/01 07:41:29;;;;;;;6.15;4.43;;;10.60;99.90;;;;;;5087014;28;20040;-52
2022/05/01 07:43:56;;;;;;;8.05;4.90;;;10.80;99.90;;;;;;5092353;28;20040;-54
2022/05/01 07:46:23;;;;;;;8.27;4.93;;;10.90;99.90;;;;;;5087351;28;20044;-51
2022/05/01 07:48:49;;;;;;;8.00;4.13;;;11.10;99.90;;;;;;5086733;28;20044;-51
2022/05/01 07:51:16;;;;;;;6.32;4.30;;;11.20;99.90;;;;;;5085937;28;20434;-54
2022/05/01 07:53:43;;;;;;;4.25;3.67;;;11.40;99.90;;;;;;5091687;28;20393;-53
2022/05/01 07:56:10;;;;;;;5.40;3.30;;;11.50;99.90;;;;;;5087274;28;20086;-50
2022/05/01 07:58:36;;;;;;;6.32;3.53;;;11.50;99.90;;;;;;5091625;28;20044;-51
2022/05/01 08:01:04;;;;;;;6.93;3.70;;;11.60;99.90;;;;;;5086797;28;20512;-51
2022/05/01 08:06:16;;;;;;;4.45;3.58;;;11.70;99.90;;;;;;5068969;28;20299;-49
2022/05/01 08:08:42;;;;;;;7.28;4.25;;;11.70;99.90;;;;;;5091531;28;20093;-52
2022/05/01 08:11:12;;;;;;;8.85;4.07;;;11.90;99.90;;;;;;5087118;28;20439;-53
2022/05/01 08:13:39;;;;;;;9.27;5.70;;;12.00;99.90;;;;;;5091727;28;20044;-53
2022/05/01 08:16:05;;;;;;;4.55;3.53;;;11.90;99.90;;;;;;5086459;28;20047;-50
2022/05/01 08:21:18;;;;;;;4.53;3.58;;;12.10;99.90;;;;;;5087061;28;20058;-48
2022/05/01 08:23:44;;;;;;;8.10;4.95;;;12.20;99.90;;;;;;5091651;28;20040;-54
2022/05/01 08:26:11;;;;;;;6.53;2.85;;;12.10;99.90;;;;;;5091157;28;20032;-49
2022/05/01 08:28:40;;;;;;;4.20;3.13;;;12.00;99.90;;;;;;5091844;28;20043;-49
2022/05/01 08:31:07;;;;;;;5.50;3.10;;;12.00;99.90;;;;;;5093152;28;20028;-51
2022/05/01 08:33:35;;;;;;;3.05;2.40;;;12.10;99.90;;;;;;5102389;28;20403;-52
2022/05/01 08:36:06;;;;;;;3.25;2.00;;;12.10;99.90;;;;;;5097546;28;20404;-49
2022/05/01 08:38:35;;;;;;;7.68;2.20;;;12.30;99.90;;;;;;5104123;28;20036;-49
2022/05/01 08:41:03;;;;;;;2.95;1.83;;;12.40;99.90;;;;;;5102779;28;20096;-49
2022/05/01 08:43:31;;;;;;;3.70;2.28;;;12.50;99.90;;;;;;5088574;28;20052;-49
2022/05/01 08:46:27;;;;;;;4.13;1.63;;;12.60;99.90;;;;;;5087730;28;20114;-50
2022/05/01 08:49:17;;;;;;;5.75;1.90;;;12.80;99.90;;;;;;5086754;28;20109;-52
2022/05/01 08:51:44;;;;;;;2.65;2.08;;;12.90;99.90;;;;;;5085386;28;20036;-49
2022/05/01 08:54:12;;;;;;;3.17;2.15;;;12.90;99.90;;;;;;5091152;28;20044;-54
2022/05/01 08:56:41;;;;;;;2.08;1.88;;;13.00;99.90;;;;;;5087268;28;20040;-51
2022/05/01 08:59:14;;;;;;;2.60;1.90;;;13.10;99.90;;;;;;5090441;28;20043;-51
2022/05/01 09:01:44;;;;;;;2.58;2.08;;;13.20;99.90;;;;;;5090694;28;20040;-52
2022/05/01 09:04:12;;;;;;;2.83;2.10;;;13.10;99.90;;;;;;5090986;28;20044;-51
2022/05/01 09:06:42;;;;;;;3.08;2.10;;;13.10;99.90;;;;;;5072736;28;20095;-53
2022/05/01 09:09:11;;;;;;;1.75;1.65;;;13.10;99.90;;;;;;5090554;28;20116;-50
2022/05/01 09:14:25;;;;;;;3.13;1.75;;;13.40;99.90;;;;;;5101732;22;20047;-55
2022/05/01 09:17:08;;;;;;;1.73;1.63;;;13.10;99.90;;;;;;5103170;28;20496;-53
2022/05/01 09:19:47;;;;;;;2.22;1.58;;;13.00;99.90;;;;;;5121467;28;20043;-52
2022/05/01 09:22:16;;;;;;;2.53;1.70;;;13.00;99.90;;;;;;5120928;28;20035;-51
2022/05/01 09:24:43;;;;;;;1.83;1.60;;;13.10;99.90;;;;;;5121299;28;20491;-53
2022/05/01 09:27:29;;;;;;;4.75;1.77;;;13.20;99.90;;;;;;5131579;28;20039;-52
2022/05/01 09:30:11;;;;;;;2.65;1.90;;;13.30;99.90;;;;;;5127710;28;20043;-53
2022/05/01 09:32:39;;;;;;;3.17;1.83;;;13.20;99.90;;;;;;5119402;28;20044;-51
2022/05/01 09:35:11;;;;;;;2.08;1.88;;;13.30;99.90;;;;;;5120460;28;20438;-52
2022/05/01 09:37:38;;;;;;;3.50;2.30;;;13.20;99.90;;;;;;5131598;28;20103;-51
2022/05/01 09:40:05;;;;;;;2.78;1.90;;;13.10;99.90;;;;;;5131529;28;20043;-52
2022/05/01 09:42:35;;;;;;;3.72;2.38;;;13.20;99.90;;;;;;5115333;28;20051;-51
2022/05/01 09:45:12;;;;;;;3.00;2.30;;;13.10;99.90;;;;;;5129903;28;20548;-52
2022/05/01 09:47:41;;;;;;;3.75;2.10;;;13.10;99.90;;;;;;5126055;27;20047;-53
2022/05/01 09:50:09;;;;;;;2.50;2.00;;;13.30;99.90;;;;;;5125480;27;20043;-53
2022/05/01 09:53:01;;;;;;;11.10;2.45;;;13.40;99.90;;;;;;5127949;27;20089;-52
2022/05/01 09:55:29;;;;;;;2.78;2.00;;;13.60;99.90;;;;;;5119841;27;20055;-52
2022/05/01 09:58:06;;;;;;;3.35;2.05;;;13.70;99.90;;;;;;5132933;27;20043;-54
2022/05/01 10:00:36;;;;;;;4.38;2.75;;;13.80;99.90;;;;;;5124528;27;20039;-52
2022/05/01 10:03:29;;;;;;;3.05;2.15;;;13.80;99.90;;;;;;5134894;27;20045;-53
2022/05/01 10:05:58;;;;;;;6.00;2.60;;;13.70;99.90;;;;;;5129914;27;20549;-52
2022/05/01 10:08:25;;;;;;;4.60;2.90;;;13.40;99.90;;;;;;5128028;27;20487;-52
2022/05/01 10:10:58;;;;;;;4.78;2.42;;;13.20;99.90;;;;;;5130306;27;20390;-52
2022/05/01 10:13:26;;;;;;;3.72;2.13;;;13.00;99.90;;;;;;5135230;27;20049;-52
2022/05/01 10:16:06;;;;;;;2.38;1.98;;;13.10;99.90;;;;;;5124819;27;20548;-54
2022/05/01 10:18:33;;;;;;;2.83;2.30;;;13.20;99.90;;;;;;5110172;27;20039;-53
2022/05/01 10:21:02;;;;;;;7.07;2.78;;;13.30;99.90;;;;;;5134946;27;20047;-50
2022/05/01 10:23:30;;;;;;;4.38;3.25;;;13.30;99.90;;;;;;5126940;27;20043;-52
2022/05/01 10:26:28;;;;;;;6.90;3.78;;;13.40;99.90;;;;;;5122336;27;20096;-52
2022/05/01 10:29:14;;;;;;;6.00;3.92;;;13.30;99.90;;;;;;5132727;27;20555;-54
2022/05/01 10:32:21;;;;;;;5.22;3.92;;;13.10;99.90;;;;;;5134473;27;20043;-50
2022/05/01 10:35:25;;;;;;;7.13;4.63;;;12.90;99.90;;;;;;5119882;27;20515;-51
2022/05/01 10:38:11;;;;;;;8.25;5.15;;;12.70;99.90;;;;;;5124530;27;20071;-51
2022/05/01 10:40:42;;;;;;;8.15;6.00;;;12.50;99.90;;;;;;5125233;27;20047;-55
2022/05/01 10:43:33;;;;;;;9.27;6.07;;;12.30;99.90;;;;;;5118777;27;20403;-51
2022/05/01 10:46:02;;;;;;;9.25;5.50;;;11.90;99.90;;;;;;5117788;27;20047;-52
2022/05/01 10:48:33;;;;;;;8.18;5.38;;;11.70;99.90;;;;;;5115702;27;20074;-51
2022/05/01 10:51:31;;;;;;;8.98;5.63;;;11.60;99.90;;;;;;5121163;27;20122;-50
2022/05/01 10:54:10;;;;;;;9.07;6.40;;;11.60;99.90;;;;;;5120153;27;20035;-51
2022/05/01 10:56:44;;;;;;;13.20;6.78;;;11.60;99.90;;;;;;5117178;27;20118;-51
2022/05/01 10:59:38;;;;;;;12.43;7.10;;;11.50;99.90;;;;;;5119668;27;20063;-50
2022/05/01 11:02:22;;;;;;;10.25;6.45;;;11.40;99.90;;;;;;5114182;27;20100;-50
2022/05/01 11:04:51;;;;;;;9.75;7.63;;;11.30;99.90;;;;;;5122771;27;20043;-50
2022/05/01 11:07:19;;;;;;;12.18;7.85;;;11.20;99.90;;;;;;5114718;27;20054;-51
2022/05/01 11:09:48;;;;;;;13.18;8.57;;;11.20;99.90;;;;;;5121353;27;20036;-50
2022/05/01 11:12:25;;;;;;;13.48;8.98;;;11.20;99.90;;;;;;5118001;27;20761;-52
2022/05/01 11:15:07;;;;;;;12.68;7.85;;;11.30;99.90;;;;;;5125802;27;20038;-52
2022/05/01 11:17:36;;;;;;;15.15;8.65;;;11.30;99.90;;;;;;5129519;27;20042;-51
2022/05/01 11:20:23;;;;;;;13.48;8.35;;;11.40;99.90;;;;;;5124144;27;20035;-50
2022/05/01 11:22:51;;;;;;;16.10;8.98;;;11.50;99.90;;;;;;5127236;27;20051;-52
2022/05/01 11:25:39;;;;;;;14.13;8.73;;;11.50;99.90;;;;;;5127957;27;20047;-50
2022/05/01 11:28:06;;;;;;;13.65;8.90;;;11.50;99.90;;;;;;5128083;27;20047;-51
2022/05/01 11:30:35;;;;;;;12.43;8.70;;;11.60;99.90;;;;;;5124570;27;20492;-52
2022/05/01 11:33:08;;;;;;;14.75;9.73;;;11.60;99.90;;;;;;5111134;27;20631;-52
2022/05/01 11:35:56;;;;;;;13.60;9.07;;;11.60;99.90;;;;;;5130260;27;20441;-50
2022/05/01 11:38:29;;;;;;;15.13;9.52;;;11.70;99.90;;;;;;5127788;27;20449;-53
2022/05/01 11:41:00;;;;;;;14.73;9.40;;;11.70;99.90;;;;;;5129805;27;20039;-52
2022/05/01 11:43:29;;;;;;;15.82;10.77;;;11.70;99.90;;;;;;5128049;27;20070;-50
2022/05/01 11:46:02;;;;;;;18.60;10.25;;;11.90;99.90;;;;;;5127596;27;20047;-53
2022/05/01 11:48:34;;;;;;;18.08;10.63;;;11.90;99.90;;;;;;5126698;27;20071;-52
2022/05/01 11:51:00;;;;;;;18.98;12.10;;;11.90;99.90;;;;;;5130096;27;20031;-50
2022/05/01 11:53:32;;;;;;;18.67;10.88;;;11.80;99.90;;;;;;5120575;27;20401;-51
2022/05/01 12:04:33;;;;;;;19.67;11.57;;;11.70;99.90;;;;;;5112378;28;20043;-54
2022/05/01 12:07:18;;;;;;;17.95;11.10;;;11.60;99.90;;;;;;5121022;27;20137;-51
2022/05/01 12:09:46;;;;;;;16.73;10.75;;;11.60;99.90;;;;;;5132756;27;20522;-52
2022/05/01 12:12:17;;;;;;;20.27;11.85;;;11.60;99.90;;;;;;5125420;27;20043;-51
2022/05/01 12:14:44;;;;;;;17.98;11.48;;;11.50;99.90;;;;;;5117795;27;20043;-53
2022/05/01 12:17:16;;;;;;;18.08;11.63;;;11.50;99.90;;;;;;5132862;27;20043;-50
2022/05/01 12:19:50;;;;;;;20.58;12.00;;;11.40;99.90;;;;;;5132625;27;20126;-50
2022/05/01 12:22:21;;;;;;;20.05;11.90;;;11.40;99.90;;;;;;5120228;27;20044;-50
2022/05/01 12:24:49;;;;;;;24.25;12.50;;;11.40;99.90;;;;;;5126806;27;20054;-50
2022/05/01 12:27:18;;;;;;;21.20;11.93;;;11.40;99.90;;;;;;5132742;27;20039;-54
2022/05/01 12:29:51;;;;;;;21.33;11.25;;;11.40;99.90;;;;;;5123927;27;20070;-50
2022/05/01 12:32:19;;;;;;;19.80;11.77;;;11.40;99.90;;;;;;5123011;27;20418;-51
2022/05/01 12:34:49;;;;;;;17.23;11.70;;;11.40;99.90;;;;;;5132401;27;20043;-50
2022/05/01 12:37:22;;;;;;;17.00;11.68;;;11.50;99.90;;;;;;5124539;27;20050;-50
2022/05/01 12:43:50;;;;;;;21.75;12.18;;;11.50;99.90;;;;;;5118208;27;20087;-50
2022/05/01 12:45:54;;;;;;;22.75;11.90;;;11.60;99.90;;;;;;5117771;27;20044;-50
2022/05/01 12:48:21;;;;;;;22.95;13.00;;;11.80;99.90;;;;;;5123197;27;20039;-51
2022/05/01 12:50:52;;;;;;;20.35;12.38;;;11.90;99.90;;;;;;5131814;27;20453;-50
2022/05/01 12:53:30;;;;;;;19.73;12.13;;;12.00;99.90;;;;;;5132297;27;20042;-53
2022/05/01 12:56:02;;;;;;;19.55;11.70;;;12.20;99.90;;;;;;5116286;27;20040;-51
2022/05/01 12:58:34;;;;;;;16.30;10.93;;;12.30;99.90;;;;;;5111741;28;20047;-51
2022/05/01 13:01:04;;;;;;;19.35;11.63;;;12.30;99.90;;;;;;5111128;28;20043;-51
2022/05/01 13:03:39;;;;;;;19.00;11.80;;;12.30;99.90;;;;;;5111976;28;20040;-51
2022/05/01 13:06:11;;;;;;;18.95;12.27;;;12.30;99.90;;;;;;5105261;28;20495;-51
2022/05/01 13:09:09;;;;;;;19.00;11.48;;;12.40;99.90;;;;;;5132226;28;20047;-50
2022/05/01 13:11:36;;;;;;;17.05;12.05;;;12.50;99.90;;;;;;5113034;28;20055;-50
2022/05/01 13:14:04;;;;;;;21.65;13.15;;;12.60;99.90;;;;;;5119845;28;20039;-53
2022/05/01 13:16:31;;;;;;;17.42;11.73;;;12.70;99.90;;;;;;5132262;28;20061;-50
2022/05/01 13:19:03;;;;;;;19.63;12.05;;;12.70;99.90;;;;;;5107496;28;20077;-51
2022/05/01 13:21:32;;;;;;;19.67;12.73;;;12.80;99.90;;;;;;5111044;28;20039;-52
2022/05/01 13:24:13;;;;;;;16.30;11.18;;;12.90;99.90;;;;;;5112696;27;20046;-50
2022/05/01 13:26:40;;;;;;;24.13;12.63;;;13.00;99.90;;;;;;5115918;28;20400;-52
2022/05/01 13:29:09;;;;;;;18.40;11.45;;;13.20;99.90;;;;;;5121751;27;20733;-50
2022/05/01 13:31:46;;;;;;;20.20;11.40;;;13.30;99.90;;;;;;5131673;27;20414;-52
2022/05/01 13:34:13;;;;;;;16.85;11.55;;;13.50;99.90;;;;;;5128070;27;20100;-51
2022/05/01 13:36:40;;;;;;;16.35;10.68;;;13.60;99.90;;;;;;5131335;27;20043;-50
2022/05/01 13:39:08;;;;;;;17.52;10.57;;;13.70;99.90;;;;;;5130510;27;20042;-52
2022/05/01 13:47:09;;;;;;;18.33;12.10;;;13.50;99.90;;;;;;5130175;27;20424;-52